Time;durP1;ratioP1;P1;durP2;ratioP2;P2;SDS_P1;SDS_P2;PMS_P1;PMS_P2;Temp;Humidity;BMP_temperature;BMP_pressure;BME280_temperature;BME280_humidity;BME280_pressure;Samples;Min_cycle;Max_cycle;Signal;HPM_P1;HPM_P2
2022/11/29 00:00:27;;;;;;;68.80;36.17;;;;;;;1.13;71.40;100988.25;6151786;23;20028;-72
2022/11/29 00:02:54;;;;;;;72.40;37.60;;;;;;;1.16;71.62;100996.84;6151626;23;20033;-72
2022/11/29 00:05:21;;;;;;;71.32;37.03;;;;;;;1.12;71.62;100999.75;6151763;23;20021;-74
2022/11/29 00:07:48;;;;;;;72.35;36.55;;;;;;;1.05;71.90;100993.13;6151968;23;20024;-71
2022/11/29 00:10:14;;;;;;;69.00;34.33;;;;;;;1.14;71.54;100995.22;6152233;23;20025;-73
2022/11/29 00:12:41;;;;;;;70.05;35.95;;;;;;;1.26;71.40;100997.13;6152063;23;20036;-72
2022/11/29 00:15:07;;;;;;;78.78;38.83;;;;;;;1.19;71.83;101003.72;6151912;23;20033;-74
2022/11/29 00:17:35;;;;;;;75.88;38.10;;;;;;;1.32;70.93;101009.97;6151950;23;20021;-74
2022/11/29 00:20:01;;;;;;;76.30;36.38;;;;;;;1.15;71.59;101007.50;6152222;23;20029;-73
2022/11/29 00:22:28;;;;;;;74.25;38.55;;;;;;;1.33;70.93;101010.81;6141190;23;20451;-73
2022/11/29 00:24:54;;;;;;;72.53;36.60;;;;;;;1.22;71.17;101008.81;6152056;23;20068;-72
2022/11/29 00:27:21;;;;;;;78.25;38.22;;;;;;;1.31;71.07;101013.56;6125205;23;20494;-72
2022/11/29 00:29:47;;;;;;;80.38;38.83;;;;;;;1.39;70.60;101010.44;6152200;23;20105;-72
2022/11/29 00:32:14;;;;;;;74.85;36.85;;;;;;;1.33;70.89;101011.66;6132914;23;20399;-72
2022/11/29 00:34:40;;;;;;;73.13;36.58;;;;;;;1.19;70.91;101011.63;6132782;23;20017;-73
2022/11/29 00:37:07;;;;;;;79.07;37.15;;;;;;;1.09;71.02;101006.09;6151891;23;20035;-73
2022/11/29 00:39:34;;;;;;;69.68;36.65;;;;;;;1.29;70.79;101004.00;6153395;23;20090;-73
2022/11/29 00:42:00;;;;;;;80.95;37.67;;;;;;;1.37;70.47;101005.25;6153435;23;20025;-73
2022/11/29 00:44:27;;;;;;;75.70;36.63;;;;;;;1.34;70.34;101008.09;6152790;23;20022;-73
2022/11/29 00:46:53;;;;;;;76.68;37.38;;;;;;;1.32;70.76;101001.19;6153411;23;20022;-73
2022/11/29 00:49:19;;;;;;;70.55;36.95;;;;;;;1.21;71.18;101007.13;6152933;23;20017;-72
2022/11/29 00:51:46;;;;;;;78.03;37.58;;;;;;;1.16;71.00;100999.47;6152356;23;20025;-73
2022/11/29 00:54:13;;;;;;;77.70;35.13;;;;;;;1.07;71.16;100999.19;6123654;23;20019;-72
2022/11/29 00:56:40;;;;;;;72.72;35.90;;;;;;;0.96;72.17;100998.03;6124104;23;20021;-73
2022/11/29 00:59:07;;;;;;;75.55;37.40;;;;;;;1.25;71.12;101006.00;6124112;23;20462;-73
2022/11/29 01:01:34;;;;;;;71.70;36.08;;;;;;;1.17;71.36;101000.34;6108030;23;20022;-73
2022/11/29 01:04:01;;;;;;;67.05;35.80;;;;;;;1.07;71.18;100997.38;6152288;23;20052;-73
2022/11/29 01:06:27;;;;;;;70.65;35.78;;;;;;;1.12;71.33;101013.81;6153770;23;20026;-72
2022/11/29 01:08:54;;;;;;;74.07;36.03;;;;;;;1.05;71.86;101007.19;6153728;23;20282;-72
2022/11/29 01:11:23;;;;;;;79.13;38.03;;;;;;;1.22;71.35;101003.53;6152481;23;20021;-72
2022/11/29 01:13:55;;;;;;;72.25;38.17;;;;;;;1.36;70.57;101008.81;6153978;23;20037;-72
2022/11/29 01:16:22;;;;;;;73.75;36.03;;;;;;;1.29;70.86;101007.50;6152196;23;20022;-73
2022/11/29 01:18:48;;;;;;;71.97;35.78;;;;;;;1.26;70.69;101005.03;6154091;23;20034;-73
2022/11/29 01:21:19;;;;;;;69.57;36.03;;;;;;;1.27;70.63;101006.75;6153625;23;20021;-72
2022/11/29 01:23:47;;;;;;;72.05;36.00;;;;;;;1.31;70.67;101010.91;6116598;23;20032;-73
2022/11/29 01:26:16;;;;;;;76.00;35.22;;;;;;;1.29;70.83;101010.13;6153107;23;20022;-72
2022/11/29 01:28:45;;;;;;;75.35;36.45;;;;;;;1.42;70.38;101008.47;6121010;23;20458;-72
2022/11/29 01:31:15;;;;;;;67.15;34.53;;;;;;;1.39;70.37;101016.56;6145591;23;20045;-73
2022/11/29 01:33:41;;;;;;;71.35;34.67;;;;;;;1.11;71.26;101005.97;6153271;23;20056;-73
2022/11/29 01:36:09;;;;;;;69.32;34.55;;;;;;;1.25;70.61;101004.19;6152401;23;20045;-73
2022/11/29 01:38:35;;;;;;;71.90;36.97;;;;;;;1.29;70.76;101010.13;6152468;23;20036;-73
2022/11/29 01:41:10;;;;;;;69.32;35.67;;;;;;;1.14;70.47;101011.09;6153102;23;20021;-72
2022/11/29 01:43:55;;;;;;;72.22;35.88;;;;;;;1.31;70.73;101007.44;6152815;23;20028;-73
2022/11/29 01:46:22;;;;;;;70.25;35.97;;;;;;;1.27;70.78;101009.41;6147782;23;20025;-71
2022/11/29 01:48:50;;;;;;;70.30;36.00;;;;;;;1.31;70.64;101005.63;6153364;23;20084;-72
2022/11/29 01:51:17;;;;;;;70.20;35.35;;;;;;;1.23;70.47;101006.09;6152994;23;20013;-73
2022/11/29 01:53:44;;;;;;;67.85;35.78;;;;;;;1.20;70.95;101001.00;6151620;23;20025;-73
2022/11/29 01:56:13;;;;;;;74.88;36.60;;;;;;;1.20;70.78;101003.63;6153027;23;20025;-73
2022/11/29 01:58:44;;;;;;;72.85;35.83;;;;;;;1.46;70.08;100998.53;6152518;23;20392;-73
2022/11/29 02:01:11;;;;;;;73.40;36.37;;;;;;;1.38;70.10;101001.66;6152752;23;20117;-71
2022/11/29 02:03:38;;;;;;;73.97;37.75;;;;;;;1.25;70.71;100998.06;6152119;23;20076;-72
2022/11/29 02:10:05;;;;;;;74.43;34.33;;;;;;;1.39;70.28;100999.88;6136772;23;20045;-72
2022/11/29 02:12:59;;;;;;;71.00;34.33;;;;;;;1.34;70.48;101005.44;6152549;23;20021;-72
2022/11/29 02:15:53;;;;;;;69.85;35.15;;;;;;;1.32;70.31;101006.47;6152310;23;20017;-73
2022/11/29 02:18:39;;;;;;;69.05;34.58;;;;;;;1.29;70.79;101002.22;6152494;23;20022;-72
2022/11/29 02:21:28;;;;;;;70.40;35.78;;;;;;;1.18;71.11;101004.66;6152192;23;20021;-72
2022/11/29 02:24:16;;;;;;;68.93;35.08;;;;;;;1.15;71.15;101007.50;6151719;23;20033;-72
2022/11/29 02:27:01;;;;;;;68.75;35.50;;;;;;;1.03;71.58;101006.44;6152090;23;20109;-72
2022/11/29 02:29:44;;;;;;;72.50;36.58;;;;;;;1.33;70.95;101008.16;6152460;23;20017;-72
2022/11/29 02:32:52;;;;;;;71.72;36.95;;;;;;;1.23;71.11;101011.38;6152142;23;20024;-72
2022/11/29 02:35:28;;;;;;;75.95;37.10;;;;;;;1.21;70.28;101010.63;6152083;23;20021;-72
2022/11/29 02:38:03;;;;;;;75.40;35.92;;;;;;;1.17;70.84;101011.75;6147592;23;20013;-73
2022/11/29 02:41:17;;;;;;;75.75;38.40;;;;;;;1.33;70.43;101016.09;6151344;23;20101;-72
2022/11/29 02:44:14;;;;;;;77.97;35.58;;;;;;;1.47;70.05;101016.09;6061916;23;20030;-72
2022/11/29 02:46:43;;;;;;;74.43;36.40;;;;;;;1.25;70.29;101019.22;6061598;23;20022;-72
2022/11/29 02:49:12;;;;;;;75.18;36.58;;;;;;;1.15;71.00;101010.97;6060309;23;20014;-72
2022/11/29 02:51:48;;;;;;;76.47;37.25;;;;;;;1.03;71.05;101017.00;6061862;23;20022;-73
2022/11/29 02:54:23;;;;;;;74.20;36.63;;;;;;;1.02;71.90;101028.50;6062125;23;20033;-73
2022/11/29 02:56:52;;;;;;;77.47;37.25;;;;;;;1.03;71.44;101029.38;6062525;23;20023;-73
2022/11/29 02:59:37;;;;;;;75.10;36.28;;;;;;;1.22;71.23;101025.53;6061490;23;20386;-72
2022/11/29 03:02:14;;;;;;;76.57;35.75;;;;;;;1.28;70.99;101028.75;6061622;23;20018;-73
2022/11/29 03:04:49;;;;;;;73.55;37.58;;;;;;;1.21;71.25;101021.19;6061600;23;20105;-72
2022/11/29 03:07:24;;;;;;;72.55;36.10;;;;;;;1.16;71.62;101019.75;6062388;23;20106;-72
2022/11/29 03:10:27;;;;;;;73.65;37.42;;;;;;;1.42;71.21;101032.25;6062197;23;20372;-72
2022/11/29 03:12:55;;;;;;;77.90;37.55;;;;;;;1.32;71.60;101030.25;6061140;23;20033;-72
2022/11/29 03:15:44;;;;;;;71.57;37.05;;;;;;;1.27;71.94;101030.56;6143264;23;20489;-72
2022/11/29 03:18:33;;;;;;;79.82;39.53;;;;;;;1.01;72.51;101038.22;6148985;23;20025;-73
2022/11/29 03:21:29;;;;;;;71.35;37.85;;;;;;;1.10;72.57;101036.00;6147041;23;20028;-71
2022/11/29 03:24:01;;;;;;;81.00;39.63;;;;;;;1.19;72.50;101035.44;6151348;23;20032;-73
2022/11/29 03:26:37;;;;;;;76.03;38.28;;;;;;;1.19;72.90;101038.91;6152045;23;20032;-73
2022/11/29 03:29:31;;;;;;;83.75;40.40;;;;;;;1.17;72.68;101038.19;6151905;23;20028;-73
2022/11/29 03:32:09;;;;;;;81.20;40.55;;;;;;;0.99;73.14;101040.13;6147347;23;20077;-71
2022/11/29 03:35:35;;;;;;;84.72;40.83;;;;;;;1.05;72.94;101044.19;6150701;23;20033;-71
2022/11/29 03:38:15;;;;;;;79.90;39.10;;;;;;;1.01;73.40;101045.31;6119230;23;20028;-72
2022/11/29 03:41:10;;;;;;;82.80;40.33;;;;;;;0.98;73.88;101043.69;6150969;23;20029;-73
2022/11/29 03:43:58;;;;;;;81.65;39.13;;;;;;;0.88;73.53;101042.53;6117415;23;20020;-72
2022/11/29 03:46:35;;;;;;;95.70;41.05;;;;;;;0.95;73.60;101054.47;6149554;23;20021;-72
2022/11/29 03:49:08;;;;;;;82.93;41.53;;;;;;;0.91;73.71;101052.91;6151556;23;20414;-73
2022/11/29 03:51:50;;;;;;;85.85;40.03;;;;;;;0.86;73.95;101055.00;6151242;23;20036;-72
2022/11/29 03:54:24;;;;;;;82.85;41.80;;;;;;;1.13;73.22;101047.22;6150939;23;20029;-73
2022/11/29 03:56:51;;;;;;;88.35;41.17;;;;;;;1.14;72.88;101059.50;6145606;23;20017;-72
2022/11/29 03:59:30;;;;;;;92.32;42.70;;;;;;;1.12;73.15;101056.09;6151593;23;20040;-73
2022/11/29 04:02:27;;;;;;;82.22;41.28;;;;;;;0.96;72.92;101048.22;6148934;23;20022;-73
2022/11/29 04:05:09;;;;;;;91.60;42.55;;;;;;;1.03;73.39;101055.78;6143952;23;20347;-72
2022/11/29 04:07:59;;;;;;;;;;;;;;;1.03;73.31;101055.78;6122234;23;20023;-72
2022/11/29 04:10:47;;;;;;;94.95;41.72;;;;;;;1.08;73.03;101048.44;6147828;23;19923;-71
2022/11/29 04:13:41;;;;;;;84.25;40.42;;;;;;;1.23;72.60;101058.13;6152045;23;20022;-72
2022/11/29 04:16:47;;;;;;;84.80;41.95;;;;;;;1.09;72.63;101047.47;6122352;23;20022;-72
2022/11/29 04:19:25;;;;;;;81.18;40.58;;;;;;;1.12;72.85;101055.22;6121748;23;20018;-72
2022/11/29 04:22:03;;;;;;;84.93;40.42;;;;;;;0.97;73.13;101059.63;6124835;23;20025;-72
2022/11/29 04:25:25;;;;;;;81.10;40.58;;;;;;;1.14;72.66;101059.50;6119803;23;20509;-72
2022/11/29 04:28:10;;;;;;;84.55;40.38;;;;;;;1.00;73.00;101052.38;6046226;23;20031;-72
2022/11/29 04:30:56;;;;;;;86.50;41.72;;;;;;;1.04;72.76;101052.22;6062752;23;20033;-72
2022/11/29 04:33:53;;;;;;;79.70;40.38;;;;;;;1.21;72.46;101059.97;6063824;23;20027;-73
2022/11/29 04:36:41;;;;;;;82.03;42.33;;;;;;;1.32;71.74;101052.25;6062172;23;20018;-72
2022/11/29 04:39:20;;;;;;;76.18;40.05;;;;;;;1.21;72.43;101055.53;6064028;23;20023;-72
2022/11/29 04:42:04;;;;;;;84.50;40.70;;;;;;;1.34;71.86;101057.47;6064333;23;20074;-72
2022/11/29 04:44:56;;;;;;;85.15;40.45;;;;;;;1.09;72.82;101058.06;6060523;23;20448;-72
2022/11/29 04:47:52;;;;;;;82.18;40.17;;;;;;;1.24;72.25;101062.44;6063124;23;20029;-72
2022/11/29 04:51:02;;;;;;;85.90;40.58;;;;;;;1.19;72.41;101062.69;6059518;23;20035;-72
2022/11/29 04:53:34;;;;;;;78.60;38.67;;;;;;;1.23;72.05;101066.88;6059426;23;20360;-72
2022/11/29 04:56:26;;;;;;;83.60;39.90;;;;;;;1.31;72.08;101065.56;6063015;23;20023;-72
2022/11/29 04:59:14;;;;;;;83.63;40.35;;;;;;;1.20;72.31;101069.72;6062810;23;20019;-72
2022/11/29 05:02:13;;;;;;;78.75;39.15;;;;;;;1.25;72.25;101067.63;6097341;23;20025;-73
2022/11/29 05:05:05;;;;;;;87.93;40.70;;;;;;;1.22;71.87;101067.81;6133458;23;20490;-73
2022/11/29 05:07:56;;;;;;;85.63;41.40;;;;;;;1.15;72.20;101062.97;6153271;23;20044;-72
2022/11/29 05:10:47;;;;;;;86.25;40.58;;;;;;;1.20;72.02;101069.72;6151805;23;20096;-72
2022/11/29 05:13:32;;;;;;;77.50;39.67;;;;;;;1.22;72.17;101078.38;6150810;23;20022;-73
2022/11/29 05:16:11;;;;;;;78.55;39.92;;;;;;;1.18;71.81;101071.56;6152964;23;20343;-72
2022/11/29 05:19:10;;;;;;;89.32;41.17;;;;;;;1.27;72.06;101075.47;6151176;23;20096;-73
2022/11/29 05:22:00;;;;;;;76.47;39.83;;;;;;;1.34;71.75;101075.97;6152048;23;20036;-73
2022/11/29 05:24:40;;;;;;;88.22;41.30;;;;;;;1.33;72.00;101079.53;6152216;23;20032;-72
2022/11/29 05:27:28;;;;;;;82.97;39.55;;;;;;;1.34;71.82;101083.91;6152504;23;20020;-73
2022/11/29 05:30:13;;;;;;;84.30;40.13;;;;;;;1.40;71.68;101092.31;6146095;23;20033;-73
2022/11/29 05:32:56;;;;;;;78.78;39.65;;;;;;;1.64;70.92;101089.09;6152569;23;20018;-72
2022/11/29 05:35:39;;;;;;;84.88;40.97;;;;;;;1.59;70.44;101097.34;6151650;23;20017;-73
2022/11/29 05:38:08;;;;;;;85.50;39.40;;;;;;;1.51;71.15;101104.88;6152627;23;20387;-73
2022/11/29 05:40:44;;;;;;;78.82;39.03;;;;;;;1.32;71.30;101099.00;6153012;23;20025;-71
2022/11/29 05:43:58;;;;;;;78.20;39.97;;;;;;;1.47;71.62;101104.22;6152812;23;20021;-73
2022/11/29 05:46:55;;;;;;;78.65;38.88;;;;;;;1.51;70.95;101104.00;6152663;23;20030;-73
2022/11/29 05:49:38;;;;;;;85.22;40.40;;;;;;;1.48;71.46;101105.91;6151877;23;20018;-73
2022/11/29 05:52:30;;;;;;;75.65;39.53;;;;;;;1.42;71.40;101106.28;6149554;23;20362;-73
2022/11/29 05:55:15;;;;;;;82.30;40.20;;;;;;;1.41;71.79;101109.03;6152505;23;20021;-73
2022/11/29 05:57:45;;;;;;;80.57;39.90;;;;;;;1.48;71.10;101116.50;6147922;23;20026;-72
2022/11/29 06:00:13;;;;;;;74.07;38.85;;;;;;;1.38;71.43;101115.34;6152037;23;20028;-73
2022/11/29 06:03:04;;;;;;;82.25;40.42;;;;;;;1.64;71.21;101112.91;6153684;23;20017;-73
2022/11/29 06:05:54;;;;;;;76.93;40.33;;;;;;;1.53;71.30;101120.66;6122853;23;20022;-72
2022/11/29 06:08:33;;;;;;;77.75;38.75;;;;;;;1.45;71.37;101121.13;6152148;23;20021;-72
2022/11/29 06:11:22;;;;;;;77.80;37.50;;;;;;;1.22;72.02;101127.75;6152659;23;20029;-73
2022/11/29 06:14:02;;;;;;;78.55;39.33;;;;;;;1.32;71.91;101136.84;6152586;23;20032;-72
2022/11/29 06:16:46;;;;;;;82.80;38.97;;;;;;;1.35;71.89;101139.31;6149777;23;20096;-72
2022/11/29 06:19:36;;;;;;;83.80;40.58;;;;;;;1.33;71.94;101137.69;6150761;23;20018;-73
2022/11/29 06:22:21;;;;;;;84.20;40.22;;;;;;;1.29;72.00;101137.00;6152720;23;20360;-73
2022/11/29 06:24:51;;;;;;;83.57;40.42;;;;;;;1.38;72.06;101151.50;6151570;23;20108;-72
2022/11/29 06:27:56;;;;;;;88.28;41.50;;;;;;;1.44;71.98;101156.44;6152451;23;20021;-72
2022/11/29 06:30:29;;;;;;;83.78;40.28;;;;;;;1.41;71.45;101151.31;6120180;23;20026;-72
2022/11/29 06:33:12;;;;;;;79.30;40.58;;;;;;;1.32;71.89;101143.91;6151467;23;20029;-72
2022/11/29 06:35:38;;;;;;;86.75;41.70;;;;;;;1.41;72.27;101151.31;6141992;23;20023;-72
2022/11/29 06:38:27;;;;;;;87.55;42.47;;;;;;;1.43;71.37;101150.28;6152450;23;20028;-72
2022/11/29 06:40:56;;;;;;;81.78;39.22;;;;;;;1.35;71.67;101160.44;6148860;23;20040;-72
2022/11/29 06:43:28;;;;;;;80.03;38.65;;;;;;;1.36;71.52;101156.84;6149940;23;20028;-71
2022/11/29 06:46:02;;;;;;;83.75;40.90;;;;;;;1.40;71.43;101162.81;6151821;23;20032;-72
2022/11/29 06:48:37;;;;;;;77.95;39.33;;;;;;;1.03;72.44;101164.13;6152357;23;20021;-73
2022/11/29 06:51:20;;;;;;;79.93;40.15;;;;;;;1.39;72.13;101169.91;6151711;23;20018;-73
2022/11/29 06:54:03;;;;;;;85.20;39.85;;;;;;;1.45;71.74;101168.69;6151173;23;20022;-72
2022/11/29 06:56:59;;;;;;;84.65;40.60;;;;;;;1.36;71.78;101175.38;6152494;23;20458;-72
2022/11/29 06:59:41;;;;;;;82.72;38.83;;;;;;;1.37;71.53;101171.81;6122254;23;20014;-72
2022/11/29 07:02:30;;;;;;;80.47;39.35;;;;;;;1.20;71.90;101178.06;6145672;23;20017;-72
2022/11/29 07:05:24;;;;;;;86.00;39.72;;;;;;;1.26;71.85;101171.56;6150783;23;20026;-72
2022/11/29 07:07:55;;;;;;;81.20;40.00;;;;;;;1.37;72.04;101173.56;6149135;23;20017;-72
2022/11/29 07:10:23;;;;;;;75.78;38.33;;;;;;;1.35;71.70;101178.97;6150920;23;20026;-72
2022/11/29 07:12:50;;;;;;;80.97;39.58;;;;;;;1.31;72.01;101181.88;6152699;23;20029;-73
2022/11/29 07:15:20;;;;;;;77.95;37.90;;;;;;;1.25;72.05;101181.28;6148706;23;20124;-72
2022/11/29 07:18:06;;;;;;;80.68;40.03;;;;;;;1.51;71.12;101188.63;6151990;23;20028;-74
2022/11/29 07:20:54;;;;;;;77.03;39.90;;;;;;;1.59;70.98;101184.59;6152604;23;20350;-72
2022/11/29 07:23:33;;;;;;;79.13;39.30;;;;;;;1.61;70.49;101189.78;6123578;23;20027;-73
2022/11/29 07:25:59;;;;;;;80.85;38.47;;;;;;;1.51;71.30;101189.50;6151168;23;20026;-73
2022/11/29 07:28:42;;;;;;;80.30;40.10;;;;;;;1.70;70.54;101195.38;6151112;23;20022;-73
2022/11/29 07:31:43;;;;;;;86.28;40.20;;;;;;;1.46;71.43;101187.09;6150902;23;20027;-73
2022/11/29 07:34:16;;;;;;;80.43;38.63;;;;;;;1.59;70.34;101197.81;6087541;23;20076;-73
2022/11/29 07:37:00;;;;;;;78.60;38.20;;;;;;;1.55;70.71;101196.31;6139838;23;20446;-73
2022/11/29 07:39:35;;;;;;;75.82;36.95;;;;;;;1.37;70.74;101190.31;6150313;23;20021;-73
2022/11/29 07:42:05;;;;;;;78.28;38.53;;;;;;;1.43;71.34;101197.84;6151557;23;20028;-73
2022/11/29 07:44:48;;;;;;;83.68;38.78;;;;;;;1.52;70.83;101201.78;6151192;23;20092;-72
2022/11/29 07:47:16;;;;;;;78.00;37.70;;;;;;;1.53;71.17;101202.63;6150380;23;20018;-73
2022/11/29 07:49:43;;;;;;;76.47;37.05;;;;;;;1.54;71.25;101210.44;6149722;23;20036;-72
2022/11/29 07:52:15;;;;;;;72.85;38.05;;;;;;;1.61;70.96;101203.00;6151100;23;20026;-73
2022/11/29 07:54:41;;;;;;;;;;;;;;;1.67;70.39;101210.59;6145681;23;20033;-72
2022/11/29 07:57:08;;;;;;;79.22;37.95;;;;;;;1.32;71.11;101210.00;6152245;23;19923;-72
2022/11/29 07:59:35;;;;;;;78.38;39.00;;;;;;;1.58;71.13;101213.78;6151916;23;20021;-73
2022/11/29 08:02:01;;;;;;;78.97;38.20;;;;;;;1.60;70.51;101218.03;6151994;23;20025;-72
2022/11/29 08:04:45;;;;;;;78.53;37.72;;;;;;;1.66;70.38;101219.47;6151428;23;20025;-72
2022/11/29 08:07:12;;;;;;;75.13;38.35;;;;;;;1.55;71.16;101217.47;6120961;23;20131;-73
2022/11/29 08:09:38;;;;;;;71.97;36.60;;;;;;;1.63;70.40;101217.00;6122782;23;20018;-72
2022/11/29 08:12:05;;;;;;;77.43;37.05;;;;;;;1.59;70.68;101213.69;6121149;23;20071;-73
2022/11/29 08:14:32;;;;;;;77.20;37.90;;;;;;;1.63;70.77;101220.50;6122089;23;20022;-72
2022/11/29 08:16:58;;;;;;;72.90;37.35;;;;;;;1.57;71.07;101218.19;6121999;23;20458;-72
2022/11/29 08:19:25;;;;;;;72.68;36.80;;;;;;;1.63;70.65;101230.22;6121904;23;20018;-73
2022/11/29 08:21:51;;;;;;;75.00;37.97;;;;;;;1.68;71.16;101236.09;6122123;23;20033;-72
2022/11/29 08:24:18;;;;;;;86.32;38.88;;;;;;;1.68;70.86;101226.38;6121865;23;20032;-73
2022/11/29 08:26:45;;;;;;;75.68;38.15;;;;;;;1.71;70.87;101228.84;6122684;23;20028;-72
2022/11/29 08:29:11;;;;;;;78.18;36.38;;;;;;;1.65;71.09;101238.94;6123068;23;20022;-72
2022/11/29 08:31:38;;;;;;;79.32;37.35;;;;;;;1.46;71.88;101239.97;6121575;23;20029;-73
2022/11/29 08:34:05;;;;;;;83.40;37.63;;;;;;;1.48;71.90;101238.13;6122485;23;20030;-73
2022/11/29 08:36:32;;;;;;;84.25;41.10;;;;;;;1.65;71.50;101228.34;6121649;23;20022;-73
2022/11/29 08:39:01;;;;;;;80.60;40.08;;;;;;;1.55;71.89;101237.78;6121632;23;20034;-73
2022/11/29 08:41:35;;;;;;;84.88;38.63;;;;;;;1.49;72.06;101233.69;6122167;23;20028;-73
2022/11/29 08:44:03;;;;;;;85.32;39.35;;;;;;;1.60;71.66;101235.69;6121159;23;20546;-72
2022/11/29 08:47:34;;;;;;;78.28;37.55;;;;;;;1.41;71.98;101231.47;6122333;23;20026;-72
2022/11/29 08:49:15;;;;;;;82.88;39.40;;;;;;;1.58;71.70;101240.25;6122622;23;20026;-72
2022/11/29 08:51:42;;;;;;;82.22;39.90;;;;;;;1.77;71.94;101240.00;6122230;23;20347;-73
2022/11/29 08:54:09;;;;;;;81.32;40.15;;;;;;;1.91;71.13;101235.56;6121474;23;20022;-72
2022/11/29 08:56:36;;;;;;;79.78;38.83;;;;;;;1.61;71.86;101238.25;6122485;23;20025;-72
2022/11/29 08:59:22;;;;;;;79.63;38.38;;;;;;;1.77;71.65;101238.19;6151383;23;20025;-71
2022/11/29 09:01:49;;;;;;;85.63;39.08;;;;;;;1.84;71.12;101244.81;6153400;23;20036;-73
2022/11/29 09:04:16;;;;;;;76.82;38.60;;;;;;;1.88;71.26;101243.69;6153449;23;20018;-74
2022/11/29 09:06:43;;;;;;;75.03;38.30;;;;;;;1.99;71.31;101242.22;6147138;23;20026;-73
2022/11/29 09:09:09;;;;;;;76.88;38.20;;;;;;;1.98;71.14;101241.38;6153583;23;20051;-73
2022/11/29 09:11:36;;;;;;;84.15;39.70;;;;;;;2.01;71.31;101246.50;6152632;23;20037;-74
2022/11/29 09:14:05;;;;;;;78.35;40.90;;;;;;;2.02;71.42;101253.50;6153303;23;20025;-73
2022/11/29 09:16:36;;;;;;;82.63;40.20;;;;;;;2.11;71.21;101242.34;6153281;23;20042;-74
2022/11/29 09:19:04;;;;;;;74.53;38.00;;;;;;;2.22;70.30;101256.75;6127032;23;20021;-72
2022/11/29 09:21:31;;;;;;;78.53;38.25;;;;;;;2.15;70.88;101258.91;6152635;23;20025;-73
2022/11/29 09:24:00;;;;;;;77.68;38.75;;;;;;;2.17;70.56;101255.22;6152385;23;20025;-73
2022/11/29 09:26:30;;;;;;;67.88;36.08;;;;;;;2.01;70.75;101254.44;6152195;23;20014;-72
2022/11/29 09:29:01;;;;;;;73.78;36.92;;;;;;;1.92;71.10;101255.84;6152566;23;20105;-72
2022/11/29 09:31:29;;;;;;;76.40;39.28;;;;;;;2.11;71.12;101254.75;6152385;23;20354;-73
2022/11/29 09:33:56;;;;;;;74.60;38.03;;;;;;;1.94;70.92;101253.97;6152605;23;20021;-72
2022/11/29 09:36:23;;;;;;;76.22;37.13;;;;;;;2.04;70.52;101253.41;6152922;23;20044;-73
2022/11/29 09:38:54;;;;;;;67.90;36.40;;;;;;;1.94;71.03;101253.09;6152530;23;20406;-73
2022/11/29 09:41:57;;;;;;;74.93;37.22;;;;;;;2.12;70.61;101256.44;6153275;23;20022;-72
2022/11/29 09:44:45;;;;;;;78.18;37.42;;;;;;;2.36;69.78;101265.53;6148668;23;20025;-72
2022/11/29 09:47:31;;;;;;;69.90;37.20;;;;;;;2.49;70.14;101267.44;6151903;23;20018;-72
2022/11/29 09:50:15;;;;;;;75.97;37.38;;;;;;;2.52;69.36;101256.66;6150026;23;20032;-73
2022/11/29 09:52:58;;;;;;;74.13;36.33;;;;;;;2.73;69.08;101255.31;6108342;23;20026;-75
2022/11/29 09:55:55;;;;;;;74.22;36.55;;;;;;;2.74;69.05;101250.88;6123240;23;20033;-75
2022/11/29 09:58:27;;;;;;;71.00;36.65;;;;;;;2.85;69.13;101256.34;6120373;23;20022;-75
2022/11/29 10:01:04;;;;;;;72.75;36.63;;;;;;;2.87;68.31;101255.28;6122575;23;20084;-75
2022/11/29 10:03:37;;;;;;;70.47;35.95;;;;;;;2.89;68.54;101258.72;6121146;23;20477;-75
2022/11/29 10:06:28;;;;;;;67.03;35.05;;;;;;;2.84;68.14;101265.25;6121970;23;20025;-75
2022/11/29 10:09:13;;;;;;;70.57;34.95;;;;;;;2.63;68.88;101264.78;6150980;23;20053;-75
2022/11/29 10:12:03;;;;;;;72.28;34.75;;;;;;;2.79;68.40;101276.13;6151254;23;20021;-75
2022/11/29 10:14:42;;;;;;;68.80;34.65;;;;;;;2.69;68.08;101267.06;6088901;23;20454;-75
2022/11/29 10:17:30;;;;;;;72.55;35.95;;;;;;;2.90;67.95;101271.00;6118130;23;20071;-75
2022/11/29 10:20:29;;;;;;;69.50;35.58;;;;;;;2.74;68.49;101262.31;6148057;23;20028;-75
2022/11/29 10:23:39;;;;;;;68.68;34.83;;;;;;;2.70;68.92;101266.09;6132444;23;20022;-75
2022/11/29 10:26:12;;;;;;;68.30;33.92;;;;;;;2.56;69.32;101269.63;6121111;23;20057;-75
2022/11/29 10:28:54;;;;;;;66.25;34.83;;;;;;;2.73;68.21;101271.22;6106672;23;20036;-75
2022/11/29 10:31:26;;;;;;;69.82;35.05;;;;;;;2.76;68.54;101276.34;6151460;23;20023;-75
2022/11/29 10:34:06;;;;;;;68.07;35.85;;;;;;;2.54;69.09;101276.78;6149024;23;20032;-75
2022/11/29 10:36:49;;;;;;;72.65;35.03;;;;;;;3.00;68.29;101283.69;6144591;23;20104;-75
2022/11/29 10:39:32;;;;;;;69.80;36.10;;;;;;;2.69;68.80;101269.72;6118494;23;20028;-75
2022/11/29 10:42:02;;;;;;;70.00;36.35;;;;;;;3.00;67.54;101286.34;6121505;23;20030;-75
2022/11/29 10:44:31;;;;;;;69.50;34.28;;;;;;;2.58;68.59;101285.41;6112596;23;20072;-75
2022/11/29 10:47:02;;;;;;;64.80;34.78;;;;;;;2.78;68.42;101273.56;6121472;23;20047;-75
2022/11/29 10:49:36;;;;;;;64.78;33.42;;;;;;;2.81;68.02;101279.53;6121960;23;20022;-75
2022/11/29 10:52:18;;;;;;;68.35;36.22;;;;;;;2.85;68.41;101275.72;6118809;23;20362;-75
2022/11/29 10:54:47;;;;;;;73.88;35.03;;;;;;;2.62;68.25;101274.53;6121469;23;20104;-75
2022/11/29 10:57:20;;;;;;;74.82;35.72;;;;;;;2.54;68.88;101287.38;6122908;23;20028;-75
2022/11/29 10:59:59;;;;;;;70.45;35.17;;;;;;;2.57;68.92;101287.19;6119554;23;20344;-75
2022/11/29 11:02:27;;;;;;;67.82;35.55;;;;;;;2.54;69.04;101281.25;6146397;23;20350;-75
2022/11/29 11:04:53;;;;;;;71.07;36.05;;;;;;;2.48;69.45;101281.63;6148183;23;20026;-75
2022/11/29 11:07:24;;;;;;;69.63;35.80;;;;;;;2.45;69.24;101277.38;6150873;23;20088;-75
2022/11/29 11:09:55;;;;;;;84.60;38.28;;;;;;;2.55;69.28;101278.53;6149336;23;20025;-75
2022/11/29 11:12:28;;;;;;;76.63;36.08;;;;;;;2.50;69.09;101277.94;6128878;23;20097;-75
2022/11/29 11:15:34;;;;;;;71.70;36.40;;;;;;;2.65;69.22;101278.78;6132365;23;20060;-75
2022/11/29 11:18:05;;;;;;;70.65;36.70;;;;;;;2.70;68.46;101279.34;6031198;23;20028;-75
2022/11/29 11:20:38;;;;;;;72.97;36.27;;;;;;;2.96;68.28;101284.81;6027618;23;20022;-75
2022/11/29 11:23:19;;;;;;;70.82;35.95;;;;;;;2.93;68.22;101290.28;6031520;23;20279;-75
2022/11/29 11:25:48;;;;;;;71.15;34.65;;;;;;;2.64;68.36;101271.78;6057009;23;20033;-75
2022/11/29 11:28:25;;;;;;;69.80;36.08;;;;;;;2.67;68.63;101271.59;6062790;23;20023;-75
2022/11/29 11:30:58;;;;;;;71.20;36.10;;;;;;;2.36;69.30;101280.56;6060138;23;20029;-75
2022/11/29 11:33:25;;;;;;;80.00;36.40;;;;;;;2.46;69.40;101278.22;6060388;23;20022;-75
2022/11/29 11:36:04;;;;;;;72.10;36.80;;;;;;;2.54;68.80;101283.91;6060584;23;20075;-75
2022/11/29 11:38:34;;;;;;;71.30;36.33;;;;;;;2.52;69.07;101291.09;6060952;23;20399;-75
2022/11/29 11:44:45;;;;;;;71.47;36.30;;;;;;;2.77;68.58;101285.13;6037182;23;20436;-75
2022/11/29 11:47:19;;;;;;;67.22;34.47;;;;;;;2.51;69.10;101286.72;6032367;23;20019;-75
2022/11/29 11:50:02;;;;;;;73.88;36.22;;;;;;;2.53;68.85;101295.44;6111419;23;20129;-75
2022/11/29 11:52:34;;;;;;;70.60;34.97;;;;;;;2.73;68.49;101289.75;6147751;23;20041;-75
2022/11/29 11:55:28;;;;;;;75.05;37.13;;;;;;;2.81;68.34;101294.59;6113865;23;20459;-75
2022/11/29 11:58:03;;;;;;;71.78;36.25;;;;;;;2.84;68.32;101289.09;6120067;23;20455;-75
2022/11/29 12:00:51;;;;;;;69.93;34.53;;;;;;;2.81;68.25;101292.78;6120443;23;20021;-75
2022/11/29 12:03:47;;;;;;;73.22;35.55;;;;;;;2.77;67.97;101291.28;6121090;23;20022;-75
2022/11/29 12:06:49;;;;;;;70.95;35.10;;;;;;;2.64;68.13;101288.53;6101347;23;20022;-75
2022/11/29 12:09:31;;;;;;;68.22;34.50;;;;;;;2.50;69.40;101292.97;6120519;23;20044;-75
2022/11/29 12:12:15;;;;;;;63.42;34.08;;;;;;;2.58;69.18;101302.16;6145195;23;20021;-75